createdAt,value
2023-02-13T00:00:35.000Z,100493.94
2023-02-13T00:03:01.806Z,100490.22
2023-02-13T00:05:28.317Z,100492.91
2023-02-13T00:07:54.795Z,100496.25
2023-02-13T00:10:21.375Z,100499.06
2023-02-13T00:12:47.842Z,100492.97
2023-02-13T00:15:14.411Z,100499.97
2023-02-13T00:17:40.915Z,100493.03
2023-02-13T00:20:10.095Z,100498.94
2023-02-13T00:22:38.140Z,100488.34
2023-02-13T00:25:07.124Z,100487.59
2023-02-13T00:27:33.897Z,100491.19
2023-02-13T00:30:00.643Z,100477.03
2023-02-13T00:32:27.193Z,100483.91
2023-02-13T00:34:53.742Z,100477.00
2023-02-13T00:37:22.228Z,100480.72
2023-02-13T00:39:48.685Z,100477.41
2023-02-13T00:42:15.117Z,100476.75
2023-02-13T00:44:41.576Z,100479.56
2023-02-13T00:47:08.093Z,100474.25
2023-02-13T00:49:34.545Z,100469.81
2023-02-13T00:52:01.026Z,100471.44
2023-02-13T00:54:27.562Z,100469.59
2023-02-13T00:56:54.076Z,100469.47
2023-02-13T00:59:20.535Z,100471.19
2023-02-13T01:01:47.030Z,100478.34
2023-02-13T01:04:13.565Z,100474.19
2023-02-13T01:06:40.226Z,100467.06
2023-02-13T01:09:06.885Z,100474.00
2023-02-13T01:11:33.390Z,100474.00
2023-02-13T01:13:59.923Z,100474.88
2023-02-13T01:16:27.093Z,100470.47
2023-02-13T01:18:53.588Z,100465.16
2023-02-13T01:21:23.818Z,100466.00
2023-02-13T01:23:51.453Z,100462.19
2023-02-13T01:26:22.684Z,100462.53
2023-02-13T01:28:57.695Z,100459.13
2023-02-13T01:31:25.320Z,100464.16
2023-02-13T01:33:51.984Z,100459.69
2023-02-13T01:36:18.675Z,100463.50
2023-02-13T01:38:45.114Z,100459.25
2023-02-13T01:41:11.636Z,100454.84
2023-02-13T01:43:52.340Z,100452.09
2023-02-13T01:46:43.163Z,100446.31
2023-02-13T01:49:18.516Z,100451.53
2023-02-13T01:51:47.283Z,100453.03
2023-02-13T01:54:26.108Z,100448.75
2023-02-13T01:57:01.025Z,100444.50
2023-02-13T01:59:34.763Z,100447.91
2023-02-13T02:02:02.464Z,100445.38
2023-02-13T02:04:38.869Z,100445.28
2023-02-13T02:07:18.822Z,100436.53
2023-02-13T02:09:46.604Z,100445.94
2023-02-13T02:12:46.717Z,100435.72
2023-02-13T02:15:13.427Z,100445.28
2023-02-13T02:17:42.784Z,100448.97
2023-02-13T02:20:48.784Z,100446.31
2023-02-13T02:23:27.143Z,100441.81
2023-02-13T02:26:27.296Z,100444.72
2023-02-13T02:29:17.974Z,100434.09
2023-02-13T02:32:17.751Z,100441.94
2023-02-13T02:35:09.854Z,100443.19
2023-02-13T02:38:12.135Z,100449.03
2023-02-13T02:41:04.481Z,100449.06
2023-02-13T02:44:01.542Z,100442.19
2023-02-13T02:46:37.627Z,100435.97
2023-02-13T02:49:35.822Z,100442.47
2023-02-13T02:52:15.457Z,100435.44
2023-02-13T02:55:07.064Z,100446.16
2023-02-13T02:58:07.753Z,100440.63
2023-02-13T03:01:05.490Z,100436.88
2023-02-13T03:03:52.928Z,100430.78
2023-02-13T03:06:36.048Z,100434.22
2023-02-13T03:09:29.091Z,100444.75
2023-02-13T03:12:15.381Z,100443.84
2023-02-13T03:14:44.200Z,100451.50
2023-02-13T03:17:37.156Z,100453.94
2023-02-13T03:20:52.620Z,100455.78
2023-02-13T03:23:56.560Z,100457.69
2023-02-13T03:27:06.131Z,100453.47
2023-02-13T03:30:08.868Z,100449.22
2023-02-13T03:32:46.104Z,100455.19
2023-02-13T03:36:12.585Z,100456.94
2023-02-13T03:39:01.591Z,100455.19
2023-02-13T03:41:35.724Z,100450.19
2023-02-13T03:44:18.273Z,100454.59
2023-02-13T03:46:49.887Z,100454.31
2023-02-13T03:49:43.644Z,100459.38
2023-02-13T03:52:39.215Z,100471.09
2023-02-13T03:55:49.934Z,100467.09
2023-02-13T03:58:46.255Z,100467.03
2023-02-13T04:01:18.891Z,100464.09
2023-02-13T04:04:09.502Z,100468.59
2023-02-13T04:06:57.706Z,100467.75
2023-02-13T04:09:29.203Z,100463.22
2023-02-13T04:12:19.543Z,100472.81
2023-02-13T04:15:14.577Z,100467.56
2023-02-13T04:17:51.854Z,100464.41
2023-02-13T04:20:19.145Z,100458.13
2023-02-13T04:22:48.510Z,100466.97
2023-02-13T04:25:18.385Z,100462.03
2023-02-13T04:27:44.869Z,100465.38
2023-02-13T04:30:12.479Z,100466.22
2023-02-13T04:32:39.003Z,100471.59
2023-02-13T04:35:06.012Z,100466.22
2023-02-13T04:40:28.045Z,100468.31
2023-02-13T04:42:54.620Z,100467.44
2023-02-13T04:45:21.163Z,100467.69
2023-02-13T04:47:54.910Z,100463.19
2023-02-13T04:50:22.603Z,100454.66
2023-02-13T04:52:55.518Z,100458.25
2023-02-13T04:55:24.625Z,100452.25
2023-02-13T04:57:55.819Z,100453.00
2023-02-13T05:00:25.425Z,100447.63
2023-02-13T05:02:52.666Z,100444.09
2023-02-13T05:05:20.543Z,100447.50
2023-02-13T05:07:47.212Z,100443.38
2023-02-13T05:10:13.864Z,100444.19
2023-02-13T05:12:40.769Z,100441.31
2023-02-13T05:15:08.057Z,100444.78
2023-02-13T05:17:34.595Z,100455.09
2023-02-13T05:20:01.134Z,100456.25
2023-02-13T05:22:46.120Z,100451.34
2023-02-13T05:25:12.608Z,100450.38
2023-02-13T05:27:39.158Z,100450.19
2023-02-13T05:30:06.532Z,100450.06
2023-02-13T05:32:32.984Z,100460.63
2023-02-13T05:34:59.466Z,100452.88
2023-02-13T05:37:26.039Z,100450.38
2023-02-13T05:39:52.524Z,100453.91
2023-02-13T05:42:18.971Z,100448.72
2023-02-13T05:44:45.512Z,100449.06
2023-02-13T05:47:11.993Z,100445.59
2023-02-13T05:49:38.517Z,100449.84
2023-02-13T05:52:05.038Z,100448.38
2023-02-13T05:54:31.521Z,100448.66
2023-02-13T05:56:58.027Z,100447.31
2023-02-13T05:59:24.568Z,100451.31
2023-02-13T06:01:51.108Z,100452.66
2023-02-13T06:04:17.692Z,100447.41
2023-02-13T06:06:45.468Z,100451.84
2023-02-13T06:09:12.132Z,100451.16
2023-02-13T06:11:38.615Z,100446.09
2023-02-13T06:14:05.218Z,100446.16
2023-02-13T06:16:31.719Z,100446.44
2023-02-13T06:18:58.250Z,100446.44
2023-02-13T06:21:24.812Z,100443.84
2023-02-13T06:23:51.391Z,100453.41
2023-02-13T06:26:18.692Z,100448.41
2023-02-13T06:28:45.239Z,100451.19
2023-02-13T06:31:11.847Z,100449.81
2023-02-13T06:33:38.425Z,100445.47
2023-02-13T06:36:05.234Z,100455.09
2023-02-13T06:38:32.059Z,100453.50
2023-02-13T06:41:02.213Z,100457.22
2023-02-13T06:43:28.955Z,100456.44
2023-02-13T06:45:55.757Z,100459.88
2023-02-13T06:48:23.012Z,100460.69
2023-02-13T06:50:52.049Z,100458.19
2023-02-13T06:53:24.731Z,100458.38
2023-02-13T06:55:53.238Z,100460.22
2023-02-13T06:58:21.510Z,100463.75
2023-02-13T07:00:48.584Z,100463.75
2023-02-13T07:03:15.105Z,100462.91
2023-02-13T07:05:44.261Z,100461.28
2023-02-13T07:08:13.220Z,100468.44
2023-02-13T07:10:41.623Z,100474.59
2023-02-13T07:13:09.809Z,100469.22
2023-02-13T07:15:38.040Z,100463.09
2023-02-13T07:18:05.682Z,100467.47
2023-02-13T07:20:32.912Z,100469.38
2023-02-13T07:23:05.798Z,100467.75
2023-02-13T07:25:32.738Z,100466.97
2023-02-13T07:28:05.657Z,100465.28
2023-02-13T07:30:33.724Z,100467.00
2023-02-13T07:33:04.869Z,100467.13
2023-02-13T07:35:32.397Z,100470.59
2023-02-13T07:38:00.561Z,100473.28
2023-02-13T07:40:27.754Z,100471.50
2023-02-13T07:42:54.410Z,100468.91
2023-02-13T07:45:20.907Z,100476.84
2023-02-13T07:47:47.609Z,100479.31
2023-02-13T07:50:14.124Z,100474.84
2023-02-13T07:52:40.665Z,100475.63
2023-02-13T07:55:08.194Z,100483.31
2023-02-13T07:57:34.758Z,100476.34
2023-02-13T08:00:01.372Z,100485.22
2023-02-13T08:02:27.951Z,100492.97
2023-02-13T08:04:54.487Z,100484.28
2023-02-13T08:07:20.967Z,100490.28
2023-02-13T08:10:06.288Z,100484.28
2023-02-13T08:12:39.393Z,100485.25
2023-02-13T08:15:07.024Z,100479.19
2023-02-13T08:17:33.577Z,100473.00
2023-02-13T08:20:00.100Z,100480.69
2023-02-13T08:22:26.821Z,100484.16
2023-02-13T08:24:53.411Z,100480.66
2023-02-13T08:27:19.931Z,100480.56
2023-02-13T08:29:46.453Z,100476.13
2023-02-13T08:32:12.995Z,100483.97
2023-02-13T08:34:39.623Z,100481.28
2023-02-13T08:37:06.157Z,100482.94
2023-02-13T08:39:32.745Z,100479.38
2023-02-13T08:41:59.347Z,100477.59
2023-02-13T08:44:25.855Z,100484.69
2023-02-13T08:46:52.426Z,100487.19
2023-02-13T08:49:19.067Z,100483.53
2023-02-13T08:51:45.576Z,100487.78
2023-02-13T08:54:12.093Z,100484.25
2023-02-13T08:56:38.581Z,100489.44
2023-02-13T08:59:05.066Z,100487.72
2023-02-13T09:01:31.560Z,100487.59
2023-02-13T09:03:58.157Z,100485.75
2023-02-13T09:06:26.425Z,100484.78
2023-02-13T09:08:53.499Z,100485.66
2023-02-13T09:11:23.144Z,100482.06
2023-02-13T09:13:53.495Z,100487.19
2023-02-13T09:16:21.001Z,100484.44
2023-02-13T09:18:51.876Z,100483.63
2023-02-13T09:21:22.720Z,100487.84
2023-02-13T09:23:51.385Z,100481.63
2023-02-13T09:26:20.666Z,100476.44
2023-02-13T09:28:50.261Z,100475.53
2023-02-13T09:31:21.415Z,100477.13
2023-02-13T09:33:49.956Z,100478.81
2023-02-13T09:36:23.994Z,100478.91
2023-02-13T09:38:56.700Z,100472.69
2023-02-13T09:41:36.262Z,100477.88
2023-02-13T09:44:33.634Z,100474.16
2023-02-13T09:47:25.298Z,100480.19
2023-02-13T09:50:02.622Z,100484.72
2023-02-13T09:52:34.925Z,100481.94
2023-02-13T09:55:04.042Z,100485.34
2023-02-13T09:57:46.540Z,100480.91
2023-02-13T10:00:24.269Z,100478.34
2023-02-13T10:02:58.038Z,100482.69
2023-02-13T10:06:08.061Z,100479.41
2023-02-13T10:09:10.315Z,100480.97
2023-02-13T10:12:12.907Z,100487.78
2023-02-13T10:15:00.257Z,100483.31
2023-02-13T10:17:35.168Z,100482.19
2023-02-13T10:20:45.896Z,100480.53
2023-02-13T10:23:34.910Z,100476.75
2023-02-13T10:26:06.239Z,100481.84
2023-02-13T10:28:46.125Z,100488.53
2023-02-13T10:31:22.183Z,100491.88
2023-02-13T10:33:58.795Z,100484.97
2023-02-13T10:36:36.213Z,100480.59
2023-02-13T10:39:24.496Z,100480.50
2023-02-13T10:42:14.870Z,100473.50
2023-02-13T10:45:23.654Z,100469.91
2023-02-13T10:48:06.545Z,100464.41
2023-02-13T10:50:47.808Z,100461.84
2023-02-13T10:53:32.787Z,100469.50
2023-02-13T10:56:04.828Z,100471.00
2023-02-13T10:59:06.834Z,100468.94
2023-02-13T11:01:54.436Z,100465.97
2023-02-13T11:04:21.043Z,100463.28
2023-02-13T11:07:02.912Z,100460.72
2023-02-13T11:09:39.857Z,100457.81
2023-02-13T11:12:28.777Z,100453.31
2023-02-13T11:15:19.670Z,100448.78
2023-02-13T11:17:46.905Z,100444.22
2023-02-13T11:20:46.678Z,100433.47
2023-02-13T11:23:45.199Z,100431.91
2023-02-13T11:26:29.020Z,100432.50
2023-02-13T11:29:01.087Z,100432.50
2023-02-13T11:31:38.253Z,100428.78
2023-02-13T11:34:28.277Z,100425.88
2023-02-13T11:37:22.930Z,100427.56
2023-02-13T11:39:53.607Z,100421.28
2023-02-13T11:42:35.710Z,100425.56
2023-02-13T11:45:08.411Z,100421.81
2023-02-13T11:47:37.107Z,100420.41
2023-02-13T11:50:18.842Z,100418.13
2023-02-13T11:52:56.491Z,100412.09
2023-02-13T11:55:32.715Z,100412.81
2023-02-13T11:58:23.802Z,100401.38
2023-02-13T12:00:50.537Z,100399.75
2023-02-13T12:03:30.959Z,100396.50
2023-02-13T12:06:10.792Z,100395.44
2023-02-13T12:08:39.919Z,100394.13
2023-02-13T12:11:24.560Z,100387.00
2023-02-13T12:13:52.513Z,100380.84
2023-02-13T12:16:35.788Z,100382.19
2023-02-13T12:19:11.068Z,100383.81
2023-02-13T12:22:08.950Z,100378.94
2023-02-13T12:25:14.522Z,100375.03
2023-02-13T12:27:55.871Z,100373.34
2023-02-13T12:31:05.726Z,100368.06
2023-02-13T12:34:19.146Z,100357.06
2023-02-13T12:37:19.860Z,100349.69
2023-02-13T12:39:58.166Z,100355.34
2023-02-13T12:42:51.983Z,100349.50
2023-02-13T12:45:43.096Z,100349.69
2023-02-13T12:48:30.167Z,100342.59
2023-02-13T12:51:32.009Z,100338.47
2023-02-13T12:54:48.022Z,100342.59
2023-02-13T12:57:41.136Z,100331.53
2023-02-13T13:00:22.765Z,100337.03
2023-02-13T13:03:26.900Z,100330.41
2023-02-13T13:06:19.692Z,100322.44
2023-02-13T13:09:05.602Z,100317.03
2023-02-13T13:12:06.084Z,100321.13
2023-02-13T13:14:58.325Z,100321.25
2023-02-13T13:17:42.780Z,100316.69
2023-02-13T13:20:48.757Z,100324.56
2023-02-13T13:23:30.870Z,100318.75
2023-02-13T13:26:31.993Z,100310.50
2023-02-13T13:29:03.787Z,100306.88
2023-02-13T13:31:34.314Z,100313.38
2023-02-13T13:34:08.311Z,100309.22
2023-02-13T13:36:57.826Z,100302.25
2023-02-13T13:39:43.752Z,100294.91
2023-02-13T13:42:32.305Z,100289.59
2023-02-13T13:45:22.916Z,100296.00
2023-02-13T13:48:18.080Z,100282.03
2023-02-13T13:50:46.406Z,100281.38
2023-02-13T13:53:23.193Z,100280.22
2023-02-13T13:55:49.567Z,100281.16
2023-02-13T13:58:41.654Z,100275.06
2023-02-13T14:01:31.108Z,100282.78
2023-02-13T14:04:32.701Z,100277.31
2023-02-13T14:06:59.072Z,100273.41
2023-02-13T14:09:28.354Z,100274.38
2023-02-13T14:11:56.618Z,100270.66
2023-02-13T14:14:29.261Z,100271.56
2023-02-13T14:16:58.306Z,100263.41
2023-02-13T14:19:40.613Z,100267.09
2023-02-13T14:22:19.446Z,100268.44
2023-02-13T14:24:54.474Z,100266.84
2023-02-13T14:27:29.464Z,100269.38
2023-02-13T14:29:56.821Z,100265.75
2023-02-13T14:32:33.969Z,100260.97
2023-02-13T14:35:15.055Z,100261.59
2023-02-13T14:37:57.481Z,100267.97
2023-02-13T14:40:23.828Z,100265.25
2023-02-13T14:43:19.254Z,100268.22
2023-02-13T14:46:36.081Z,100265.03
2023-02-13T14:49:07.958Z,100272.91
2023-02-13T14:51:41.141Z,100268.69
2023-02-13T14:54:38.284Z,100264.78
2023-02-13T14:57:26.336Z,100264.97
2023-02-13T15:00:18.759Z,100262.72
2023-02-13T15:02:55.113Z,100260.50
2023-02-13T15:05:31.079Z,100262.38
2023-02-13T15:08:22.565Z,100256.19
2023-02-13T15:10:53.927Z,100261.63
2023-02-13T15:13:33.910Z,100254.72
2023-02-13T15:16:09.874Z,100258.09
2023-02-13T15:18:52.373Z,100258.75
2023-02-13T15:21:24.415Z,100255.31
2023-02-13T15:23:57.292Z,100250.06
2023-02-13T15:26:28.656Z,100253.88
2023-02-13T15:29:17.468Z,100254.19
2023-02-13T15:31:52.039Z,100251.19
2023-02-13T15:34:24.215Z,100255.47
2023-02-13T15:36:53.374Z,100253.13
2023-02-13T15:39:26.400Z,100244.38
2023-02-13T15:42:00.759Z,100250.50
2023-02-13T15:44:35.755Z,100250.50
2023-02-13T15:47:28.622Z,100251.38
2023-02-13T15:49:55.659Z,100264.97
2023-02-13T15:52:42.438Z,100254.25
2023-02-13T15:55:25.471Z,100250.09
2023-02-13T15:57:57.130Z,100255.16
2023-02-13T16:00:40.750Z,100259.53
2023-02-13T16:03:16.886Z,100246.34
2023-02-13T16:05:46.907Z,100249.25
2023-02-13T16:08:28.904Z,100255.72
2023-02-13T16:11:17.067Z,100256.00
2023-02-13T16:14:07.194Z,100262.34
2023-02-13T16:17:03.830Z,100268.63
2023-02-13T16:19:52.131Z,100266.28
2023-02-13T16:22:45.008Z,100269.34
2023-02-13T16:25:39.421Z,100268.84
2023-02-13T16:28:19.885Z,100273.28
2023-02-13T16:31:00.679Z,100275.00
2023-02-13T16:33:30.693Z,100279.69
2023-02-13T16:36:20.827Z,100277.13
2023-02-13T16:38:49.884Z,100280.72
2023-02-13T16:41:19.136Z,100280.41
2023-02-13T16:43:52.057Z,100277.22
2023-02-13T16:46:27.909Z,100287.22
2023-02-13T16:48:57.423Z,100285.59
2023-02-13T16:51:29.748Z,100280.38
2023-02-13T16:54:10.700Z,100287.56
2023-02-13T16:56:46.362Z,100287.78
2023-02-13T16:59:23.937Z,100282.78
2023-02-13T17:02:16.495Z,100287.88
2023-02-13T17:05:19.101Z,100296.97
2023-02-13T17:07:50.875Z,100293.78
2023-02-13T17:10:27.540Z,100301.91
2023-02-13T17:12:56.306Z,100302.00
2023-02-13T17:15:26.332Z,100299.00
2023-02-13T17:17:53.781Z,100300.59
2023-02-13T17:20:32.779Z,100305.22
2023-02-13T17:23:03.099Z,100307.75
2023-02-13T17:25:33.949Z,100306.38
2023-02-13T17:28:16.963Z,100305.66
2023-02-13T17:30:44.775Z,100307.34
2023-02-13T17:33:21.809Z,100301.50
2023-02-13T17:35:49.179Z,100307.13
2023-02-13T17:38:16.730Z,100301.22
2023-02-13T17:40:44.702Z,100308.22
2023-02-13T17:43:13.259Z,100298.75
2023-02-13T17:45:40.454Z,100303.13
2023-02-13T17:48:07.141Z,100305.03
2023-02-13T17:50:35.873Z,100305.91
2023-02-13T17:53:16.273Z,100310.38
2023-02-13T17:55:42.827Z,100311.59
2023-02-13T17:58:09.326Z,100315.28
2023-02-13T18:00:35.936Z,100323.16
2023-02-13T18:03:03.235Z,100315.31
2023-02-13T18:05:31.323Z,100316.31
2023-02-13T18:07:58.025Z,100311.00
2023-02-13T18:10:28.013Z,100317.97
2023-02-13T18:12:56.973Z,100320.75
2023-02-13T18:15:24.308Z,100331.16
2023-02-13T18:17:50.924Z,100336.38
2023-02-13T18:20:21.194Z,100335.47
2023-02-13T18:22:51.781Z,100334.72
2023-02-13T18:25:21.977Z,100340.13
2023-02-13T18:27:48.775Z,100346.28
2023-02-13T18:30:19.300Z,100339.47
2023-02-13T18:32:50.532Z,100349.13
2023-02-13T18:35:17.985Z,100337.22
2023-02-13T18:37:44.964Z,100345.28
2023-02-13T18:40:11.979Z,100343.69
2023-02-13T18:42:38.968Z,100345.41
2023-02-13T18:45:05.845Z,100344.41
2023-02-13T18:47:32.406Z,100342.59
2023-02-13T18:49:58.900Z,100347.88
2023-02-13T18:52:25.378Z,100361.16
2023-02-13T18:54:52.014Z,100349.88
2023-02-13T18:57:22.119Z,100357.91
2023-02-13T18:59:48.652Z,100359.63
2023-02-13T19:02:15.179Z,100354.69
2023-02-13T19:04:41.699Z,100352.34
2023-02-13T19:07:08.165Z,100363.75
2023-02-13T19:09:39.930Z,100361.19
2023-02-13T19:12:07.760Z,100358.66
2023-02-13T19:14:34.289Z,100351.69
2023-02-13T19:17:00.779Z,100356.91
2023-02-13T19:19:27.474Z,100347.22
2023-02-13T19:21:54.018Z,100357.63
2023-02-13T19:24:20.467Z,100357.63
2023-02-13T19:26:49.698Z,100364.63
2023-02-13T19:29:16.194Z,100354.22
2023-02-13T19:31:42.981Z,100356.00
2023-02-13T19:34:09.751Z,100352.50
2023-02-13T19:36:36.276Z,100347.44
2023-02-13T19:39:06.612Z,100352.78
2023-02-13T19:41:33.303Z,100357.19
2023-02-13T19:44:00.967Z,100353.63
2023-02-13T19:46:32.464Z,100352.75
2023-02-13T19:48:59.804Z,100351.03
2023-02-13T19:51:31.595Z,100355.38
2023-02-13T19:54:07.530Z,100353.72
2023-02-13T19:56:38.154Z,100353.72
2023-02-13T19:59:07.063Z,100344.22
2023-02-13T20:01:33.771Z,100343.34
2023-02-13T20:04:02.799Z,100337.22
2023-02-13T20:06:36.109Z,100338.13
2023-02-13T20:09:08.893Z,100339.13
2023-02-13T20:11:35.557Z,100339.25
2023-02-13T20:14:03.944Z,100341.84
2023-02-13T20:16:32.800Z,100341.09
2023-02-13T20:19:07.424Z,100340.19
2023-02-13T20:21:34.995Z,100344.75
2023-02-13T20:24:05.723Z,100349.09
2023-02-13T20:26:33.010Z,100349.91
2023-02-13T20:29:00.226Z,100350.75
2023-02-13T20:31:29.723Z,100353.41
2023-02-13T20:33:57.497Z,100354.34
2023-02-13T20:36:28.013Z,100351.75
2023-02-13T20:39:01.169Z,100350.84
2023-02-13T20:41:31.791Z,100352.59
2023-02-13T20:44:02.688Z,100355.13
2023-02-13T20:46:35.504Z,100354.25
2023-02-13T20:49:02.246Z,100349.91
2023-02-13T20:51:29.448Z,100354.28
2023-02-13T20:53:56.816Z,100352.53
2023-02-13T20:56:26.255Z,100353.44
2023-02-13T20:58:56.182Z,100357.81
2023-02-13T21:01:30.801Z,100357.88
2023-02-13T21:03:58.180Z,100356.34
2023-02-13T21:06:34.399Z,100354.84
2023-02-13T21:09:03.125Z,100361.97
2023-02-13T21:11:29.848Z,100358.50
2023-02-13T21:13:58.050Z,100356.78
2023-02-13T21:16:28.983Z,100359.31
2023-02-13T21:18:59.037Z,100352.34
2023-02-13T21:21:31.534Z,100347.13
2023-02-13T21:24:07.651Z,100361.84
2023-02-13T21:26:35.231Z,100359.22
2023-02-13T21:29:01.940Z,100367.94
2023-02-13T21:31:33.345Z,100364.47
2023-02-13T21:34:03.259Z,100378.38
2023-02-13T21:36:31.824Z,100362.84
2023-02-13T21:38:59.698Z,100361.16
2023-02-13T21:41:26.420Z,100364.59
2023-02-13T21:43:53.597Z,100355.06
2023-02-13T21:46:24.999Z,100357.66
2023-02-13T21:49:01.231Z,100357.66
2023-02-13T21:51:30.829Z,100347.25
2023-02-13T21:53:58.620Z,100348.16
2023-02-13T21:56:32.845Z,100345.53
2023-02-13T21:59:00.208Z,100342.25
2023-02-13T22:01:34.633Z,100340.59
2023-02-13T22:04:07.085Z,100341.41
2023-02-13T22:06:38.178Z,100344.00
2023-02-13T22:09:14.161Z,100339.63
2023-02-13T22:11:41.429Z,100334.44
2023-02-13T22:14:13.349Z,100337.94
2023-02-13T22:16:40.205Z,100333.66
2023-02-13T22:19:07.111Z,100330.19
2023-02-13T22:21:36.250Z,100329.41
2023-02-13T22:24:03.638Z,100329.47
2023-02-13T22:26:37.160Z,100333.84
2023-02-13T22:29:07.558Z,100323.44
2023-02-13T22:31:35.141Z,100326.03
2023-02-13T22:34:04.746Z,100329.44
2023-02-13T22:36:40.157Z,100332.06
2023-02-13T22:39:09.564Z,100329.44
2023-02-13T22:41:36.261Z,100329.44
2023-02-13T22:44:02.829Z,100331.13
2023-02-13T22:46:32.640Z,100329.38
2023-02-13T22:49:00.108Z,100330.28
2023-02-13T22:51:34.229Z,100332.06
2023-02-13T22:54:01.225Z,100332.94
2023-02-13T22:56:30.204Z,100335.53
2023-02-13T22:58:57.459Z,100337.25
2023-02-13T23:01:27.546Z,100332.09
2023-02-13T23:03:55.367Z,100330.34
2023-02-13T23:06:23.415Z,100337.25
2023-02-13T23:08:54.753Z,100332.97
2023-02-13T23:11:46.383Z,100331.25
2023-02-13T23:14:14.217Z,100333.03
2023-02-13T23:17:01.181Z,100336.53
2023-02-13T23:19:29.697Z,100338.31
2023-02-13T23:21:56.233Z,100334.00
2023-02-13T23:24:22.862Z,100329.69
2023-02-13T23:26:49.376Z,100333.13
2023-02-13T23:29:16.351Z,100332.28
2023-02-13T23:31:42.939Z,100330.53
2023-02-13T23:34:09.580Z,100329.66
2023-02-13T23:36:36.131Z,100331.38
2023-02-13T23:39:02.654Z,100331.34
2023-02-13T23:41:29.211Z,100330.47
2023-02-13T23:43:55.774Z,100336.53
2023-02-13T23:46:22.300Z,100337.41
2023-02-13T23:48:48.802Z,100328.72
2023-02-13T23:51:15.308Z,100330.44
2023-02-13T23:53:41.781Z,100328.78
2023-02-13T23:56:08.246Z,100328.81
2023-02-13T23:58:35.121Z,100323.63
